Almond, North Carolina
Current Conditions -  °F | °C
As of 10:15 AM on Wednesday 22 Oct 2014 (Local Time) from KRHP Reporting Station
Clear Clear  
Wind Chill: 11°   Ceiling: Unl
Heat Index: 11°   Visibility: 10mi
Dew Point:   Wind: 6mph
Humidity: 58%   Direction: 100°E
Pressure: 30.15"   Gusts: NA
Location:  35.37°N, 83.57°W
Report Text: KRHP 221415Z AUTO 10005KT 10SM CLR 11/03 A3015 RMK AO2 T01090029
Loading
Personal Weather Stations






























Interactive Weather Map New forecast layout! Learn more

10-Day Weather Forecast

Advertisements
Track Severe Weather on mobile